Terminal Aerodrome Forecast
Issued by NWS Green Bay, WI

Home | Current Version | Previous Version | Graphics & Text | Print | Product List | Glossary Off
Versions: 1 2 3 4 5 6 7 8 9 10 11 12 13 14

000
FTUS43 KGRB 051729
TAFGRB
TAF
KGRB 051729Z 0518/0618 33008KT P6SM FEW100
     FM052300 27005KT P6SM SCT100
     FM060200 22004KT P6SM FEW060 SCT100
     FM061300 22009KT P6SM SCT100 BKN200=

USA.gov is the U.S. government's official web portal to all federal, state and local government web resources and services.